createdAt,value
2019-03-03T00:02:03.261Z,84.80
2019-03-03T00:04:35.443Z,83.72
2019-03-03T00:07:07.401Z,83.96
2019-03-03T00:09:39.127Z,84.15
2019-03-03T00:12:10.996Z,84.36
2019-03-03T00:14:43.212Z,84.29
2019-03-03T00:17:14.831Z,84.79
2019-03-03T00:19:46.442Z,85.76
2019-03-03T00:22:17.981Z,85.70
2019-03-03T00:24:49.876Z,86.36
2019-03-03T00:27:21.516Z,86.98
2019-03-03T00:29:53.196Z,87.75
2019-03-03T00:32:25.082Z,88.22
2019-03-03T00:34:57.060Z,88.98
2019-03-03T00:37:46.041Z,88.60
2019-03-03T00:40:54.711Z,88.28
2019-03-03T00:43:47.934Z,88.82
2019-03-03T00:46:56.524Z,88.84
2019-03-03T00:49:49.999Z,89.18
2019-03-03T00:52:37.222Z,89.01
2019-03-03T00:55:28.620Z,88.94
2019-03-03T00:58:22.023Z,89.46
2019-03-03T01:01:05.673Z,89.22
2019-03-03T01:03:59.745Z,89.66
2019-03-03T01:06:58.909Z,90.78
2019-03-03T01:09:39.997Z,90.81
2019-03-03T01:12:42.866Z,90.86
2019-03-03T01:15:36.812Z,90.94
2019-03-03T01:18:29.362Z,92.37
2019-03-03T01:21:07.272Z,91.94
2019-03-03T01:23:56.616Z,92.47
2019-03-03T01:26:28.280Z,92.77
2019-03-03T01:29:01.090Z,93.27
2019-03-03T01:31:33.289Z,94.40
2019-03-03T01:34:05.458Z,94.66
2019-03-03T01:36:37.020Z,94.04
2019-03-03T01:39:09.800Z,94.49
2019-03-03T01:41:41.470Z,94.79
2019-03-03T01:44:13.459Z,96.14
2019-03-03T01:46:45.642Z,94.69
2019-03-03T01:49:17.397Z,95.02
2019-03-03T01:51:49.504Z,94.69
2019-03-03T01:54:21.306Z,93.45
2019-03-03T01:56:52.907Z,93.02
2019-03-03T01:59:24.583Z,93.16
2019-03-03T02:01:56.401Z,93.75
2019-03-03T02:04:29.249Z,94.12
2019-03-03T02:07:00.995Z,94.20
2019-03-03T02:09:32.898Z,94.86
2019-03-03T02:12:04.711Z,95.12
2019-03-03T02:14:36.335Z,95.82
2019-03-03T02:17:08.700Z,95.33
2019-03-03T02:19:40.209Z,95.39
2019-03-03T02:22:12.001Z,95.92
2019-03-03T02:24:43.640Z,96.54
2019-03-03T02:27:15.417Z,95.93
2019-03-03T02:29:47.173Z,95.90
2019-03-03T02:32:18.769Z,96.36
2019-03-03T02:34:50.278Z,96.54
2019-03-03T02:37:22.054Z,96.68
2019-03-03T02:39:53.851Z,97.33
2019-03-03T02:42:25.517Z,97.85
2019-03-03T02:44:57.292Z,97.83
2019-03-03T02:47:29.091Z,98.41
2019-03-03T02:50:00.901Z,98.94
2019-03-03T02:52:32.510Z,99.45
2019-03-03T02:55:06.123Z,99.47
2019-03-03T02:57:37.699Z,99.71
2019-03-03T03:00:18.243Z,100.00
2019-03-03T03:02:54.426Z,99.23
2019-03-03T03:05:45.421Z,99.09
2019-03-03T03:08:21.504Z,99.12
2019-03-03T03:11:15.165Z,99.02
2019-03-03T03:14:04.758Z,99.25
2019-03-03T03:16:56.667Z,99.27
2019-03-03T03:19:37.557Z,99.49
2019-03-03T03:22:27.954Z,100.00
2019-03-03T03:25:33.677Z,100.00
2019-03-03T03:28:30.216Z,100.00
2019-03-03T03:31:23.739Z,100.00
2019-03-03T03:34:00.654Z,100.00
2019-03-03T03:36:40.090Z,100.00
2019-03-03T03:39:25.001Z,100.00
2019-03-03T03:42:14.351Z,100.00
2019-03-03T03:44:59.901Z,100.00
2019-03-03T03:47:56.663Z,100.00
2019-03-03T03:50:54.308Z,100.00
2019-03-03T03:53:43.576Z,100.00
2019-03-03T03:56:32.511Z,100.00
2019-03-03T03:59:28.770Z,100.00
2019-03-03T04:02:17.914Z,100.00
2019-03-03T04:05:23.737Z,100.00
2019-03-03T04:08:08.943Z,100.00
2019-03-03T04:11:02.182Z,100.00
2019-03-03T04:13:41.902Z,100.00
2019-03-03T04:16:21.869Z,100.00
2019-03-03T04:19:18.301Z,100.00
2019-03-03T04:22:04.494Z,100.00
2019-03-03T04:24:53.602Z,100.00
2019-03-03T04:27:50.190Z,100.00
2019-03-03T04:30:36.499Z,100.00
2019-03-03T04:33:15.425Z,100.00
2019-03-03T04:36:02.366Z,100.00
2019-03-03T04:38:45.278Z,100.00
2019-03-03T04:41:38.647Z,100.00
2019-03-03T04:44:35.381Z,100.00
2019-03-03T04:47:25.917Z,100.00
2019-03-03T04:50:16.349Z,100.00
2019-03-03T04:52:59.185Z,100.00
2019-03-03T04:55:56.098Z,100.00
2019-03-03T04:58:44.656Z,100.00
2019-03-03T05:01:34.435Z,100.00
2019-03-03T05:04:30.839Z,100.00
2019-03-03T05:07:21.149Z,100.00
2019-03-03T05:10:06.927Z,100.00
2019-03-03T05:13:00.397Z,100.00
2019-03-03T05:15:50.744Z,100.00
2019-03-03T05:18:30.241Z,100.00
2019-03-03T05:21:01.876Z,100.00
2019-03-03T05:23:33.446Z,100.00
2019-03-03T05:26:07.448Z,100.00
2019-03-03T05:28:39.269Z,100.00
2019-03-03T05:31:12.041Z,100.00
2019-03-03T05:33:43.807Z,100.00
2019-03-03T05:36:15.378Z,100.00
2019-03-03T05:38:47.355Z,100.00
2019-03-03T05:41:19.147Z,100.00
2019-03-03T05:43:51.130Z,100.00
2019-03-03T05:46:22.907Z,100.00
2019-03-03T05:48:54.715Z,100.00
2019-03-03T05:51:27.306Z,100.00
2019-03-03T05:53:59.000Z,100.00
2019-03-03T05:56:30.795Z,100.00
2019-03-03T05:59:02.490Z,100.00
2019-03-03T06:01:34.260Z,100.00
2019-03-03T06:04:07.266Z,100.00
2019-03-03T06:06:38.839Z,100.00
2019-03-03T06:09:10.567Z,100.00
2019-03-03T06:11:42.431Z,100.00
2019-03-03T06:14:14.132Z,100.00
2019-03-03T06:16:45.826Z,100.00
2019-03-03T06:19:17.543Z,100.00
2019-03-03T06:21:49.237Z,100.00
2019-03-03T06:24:20.932Z,98.09
2019-03-03T06:26:52.666Z,91.07
2019-03-03T06:29:24.578Z,84.91
2019-03-03T06:31:56.227Z,83.03
2019-03-03T06:34:28.732Z,80.16
2019-03-03T06:37:00.522Z,77.43
2019-03-03T06:39:33.710Z,74.32
2019-03-03T06:42:05.443Z,71.81
2019-03-03T06:44:37.315Z,68.55
2019-03-03T06:47:09.168Z,65.96
2019-03-03T06:49:41.022Z,65.38
2019-03-03T06:52:12.713Z,64.08
2019-03-03T06:54:44.230Z,61.60
2019-03-03T06:57:16.017Z,60.75
2019-03-03T06:59:47.490Z,59.47
2019-03-03T07:02:19.228Z,58.42
2019-03-03T07:04:51.258Z,57.50
2019-03-03T07:07:23.140Z,56.88
2019-03-03T07:09:54.743Z,54.54
2019-03-03T07:12:26.687Z,52.06
2019-03-03T07:14:58.493Z,51.76
2019-03-03T07:17:30.323Z,51.48
2019-03-03T07:20:03.560Z,48.37
2019-03-03T07:22:35.673Z,47.75
2019-03-03T07:25:09.280Z,47.43
2019-03-03T07:27:41.142Z,46.47
2019-03-03T07:30:15.271Z,45.86
2019-03-03T07:33:06.001Z,44.95
2019-03-03T07:35:38.563Z,44.67
2019-03-03T07:38:10.458Z,44.07
2019-03-03T07:40:42.754Z,42.39
2019-03-03T07:43:14.511Z,41.72
2019-03-03T07:45:46.187Z,43.31
2019-03-03T07:48:18.181Z,43.37
2019-03-03T07:50:50.589Z,41.54
2019-03-03T07:53:23.062Z,40.69
2019-03-03T07:55:55.261Z,39.87
2019-03-03T07:58:27.422Z,38.77
2019-03-03T08:00:59.487Z,38.18
2019-03-03T08:03:32.001Z,39.25
2019-03-03T08:06:03.732Z,37.81
2019-03-03T08:08:35.706Z,37.35
2019-03-03T08:11:07.784Z,36.76
2019-03-03T08:13:39.613Z,37.23
2019-03-03T08:16:11.735Z,38.07
2019-03-03T08:18:43.343Z,36.83
2019-03-03T08:21:15.146Z,36.91
2019-03-03T08:23:46.816Z,36.56
2019-03-03T08:26:18.687Z,36.75
2019-03-03T08:28:50.468Z,36.84
2019-03-03T08:31:22.228Z,36.76
2019-03-03T08:33:54.016Z,36.66
2019-03-03T08:36:26.053Z,36.95
2019-03-03T08:38:58.188Z,36.92
2019-03-03T08:41:31.239Z,37.34
2019-03-03T08:44:16.376Z,36.57
2019-03-03T08:47:12.816Z,35.37
2019-03-03T08:50:01.771Z,34.93
2019-03-03T08:52:55.433Z,36.27
2019-03-03T08:55:45.030Z,34.35
2019-03-03T08:58:23.741Z,34.82
2019-03-03T09:01:13.098Z,33.07
2019-03-03T09:04:03.968Z,32.92
2019-03-03T09:06:58.681Z,32.72
2019-03-03T09:09:52.145Z,34.31
2019-03-03T09:12:44.074Z,35.19
2019-03-03T09:15:33.742Z,34.74
2019-03-03T09:18:33.680Z,34.61
2019-03-03T09:21:27.392Z,32.23
2019-03-03T09:24:24.039Z,32.06
2019-03-03T09:27:16.952Z,32.59
2019-03-03T09:30:11.591Z,30.99
2019-03-03T09:33:03.860Z,31.18
2019-03-03T09:35:48.160Z,30.58
2019-03-03T09:38:35.966Z,28.89
2019-03-03T09:41:17.095Z,28.92
2019-03-03T09:44:12.872Z,29.19
2019-03-03T09:47:19.758Z,28.43
2019-03-03T09:50:13.637Z,28.20
2019-03-03T09:53:17.901Z,28.01
2019-03-03T09:56:08.322Z,27.19
2019-03-03T09:58:52.158Z,26.43
2019-03-03T10:01:46.318Z,27.25
2019-03-03T10:04:40.400Z,27.37
2019-03-03T10:07:30.012Z,27.20
2019-03-03T10:10:13.451Z,26.55
2019-03-03T10:12:55.937Z,25.14
2019-03-03T10:15:38.484Z,24.76
2019-03-03T10:18:20.660Z,24.53
2019-03-03T10:21:10.541Z,24.37
2019-03-03T10:24:04.085Z,22.90
2019-03-03T10:26:53.990Z,22.08
2019-03-03T10:29:44.773Z,21.27
2019-03-03T10:32:41.601Z,20.23
2019-03-03T10:35:32.413Z,20.15
2019-03-03T10:38:24.023Z,19.56
2019-03-03T10:41:18.089Z,19.93
2019-03-03T10:44:17.253Z,19.51
2019-03-03T10:47:18.712Z,18.41
2019-03-03T10:50:08.793Z,19.05
2019-03-03T10:52:58.772Z,20.59
2019-03-03T10:55:58.902Z,19.70
2019-03-03T10:58:40.447Z,18.97
2019-03-03T11:01:35.469Z,18.75
2019-03-03T11:04:29.869Z,19.71
2019-03-03T11:07:10.616Z,18.03
2019-03-03T11:10:01.317Z,16.70
2019-03-03T11:12:44.075Z,15.78
2019-03-03T11:15:44.542Z,15.55
2019-03-03T11:18:44.928Z,14.97
2019-03-03T11:21:35.263Z,15.64
2019-03-03T11:24:26.677Z,14.60
2019-03-03T11:27:21.873Z,13.25
2019-03-03T11:30:08.609Z,13.46
2019-03-03T11:32:54.090Z,13.26
2019-03-03T11:35:54.661Z,13.28
2019-03-03T11:38:57.594Z,12.93
2019-03-03T11:41:40.787Z,11.90
2019-03-03T11:44:29.236Z,12.17
2019-03-03T11:47:24.610Z,11.58
2019-03-03T11:50:05.290Z,12.36
2019-03-03T11:52:46.804Z,12.75
2019-03-03T11:55:29.900Z,13.76
2019-03-03T11:58:11.827Z,13.61
2019-03-03T12:01:05.686Z,13.18
2019-03-03T12:03:53.607Z,12.70
2019-03-03T12:06:40.247Z,11.65
2019-03-03T12:09:40.981Z,10.80
2019-03-03T12:12:47.301Z,10.50
2019-03-03T12:15:30.054Z,12.73
2019-03-03T12:18:21.414Z,13.31
2019-03-03T12:21:10.925Z,13.13
2019-03-03T12:23:51.328Z,12.24
2019-03-03T12:26:32.742Z,12.74
2019-03-03T12:29:32.260Z,13.15
2019-03-03T12:32:32.441Z,13.05
2019-03-03T12:35:26.737Z,13.22
2019-03-03T12:38:09.378Z,12.71
2019-03-03T12:41:00.219Z,12.56
2019-03-03T12:43:42.438Z,12.62
2019-03-03T12:46:29.523Z,13.75
2019-03-03T12:49:26.212Z,14.57
2019-03-03T12:52:11.510Z,15.59
2019-03-03T12:54:57.275Z,15.56
2019-03-03T12:57:42.575Z,15.93
2019-03-03T13:00:32.754Z,16.08
2019-03-03T13:03:23.099Z,14.93
2019-03-03T13:06:11.795Z,14.37
2019-03-03T13:09:15.921Z,13.39
2019-03-03T13:12:01.265Z,12.82
2019-03-03T13:15:07.703Z,13.21
2019-03-03T13:17:51.414Z,13.46
2019-03-03T13:20:42.976Z,13.91
2019-03-03T13:23:51.065Z,14.76
2019-03-03T13:26:32.118Z,15.71
2019-03-03T13:29:27.455Z,16.13
2019-03-03T13:32:11.762Z,16.94
2019-03-03T13:35:04.015Z,17.42
2019-03-03T13:37:47.538Z,17.11
2019-03-03T13:40:35.123Z,16.66
2019-03-03T13:43:07.420Z,16.26
2019-03-03T13:45:42.752Z,15.46
2019-03-03T13:48:16.096Z,16.18
2019-03-03T13:50:48.393Z,16.82
2019-03-03T13:53:28.722Z,15.85
2019-03-03T13:56:00.654Z,15.66
2019-03-03T13:58:32.693Z,15.91
2019-03-03T14:01:05.072Z,17.58
2019-03-03T14:03:36.864Z,19.07
2019-03-03T14:06:09.407Z,19.23
2019-03-03T14:08:42.225Z,18.35
2019-03-03T14:11:14.691Z,18.35
2019-03-03T14:13:46.909Z,18.66
2019-03-03T14:16:19.707Z,19.48
2019-03-03T14:18:52.619Z,19.00
2019-03-03T14:21:25.634Z,18.70
2019-03-03T14:23:57.731Z,18.50
2019-03-03T14:26:30.893Z,19.25
2019-03-03T14:29:03.155Z,19.72
2019-03-03T14:31:35.453Z,19.22
2019-03-03T14:34:07.777Z,18.44
2019-03-03T14:36:40.080Z,18.56
2019-03-03T14:39:12.074Z,19.21
2019-03-03T14:41:44.536Z,19.50
2019-03-03T14:44:16.537Z,19.83
2019-03-03T14:46:48.760Z,19.48
2019-03-03T14:49:21.521Z,18.82
2019-03-03T14:51:53.697Z,18.56
2019-03-03T14:54:25.744Z,19.09
2019-03-03T14:56:57.753Z,19.01
2019-03-03T14:59:32.824Z,18.82
2019-03-03T15:02:09.544Z,19.02
2019-03-03T15:04:44.470Z,19.06
2019-03-03T15:07:21.938Z,18.91
2019-03-03T15:09:58.151Z,19.67
2019-03-03T15:12:31.013Z,19.59
2019-03-03T15:15:05.113Z,20.37
2019-03-03T15:17:37.487Z,20.11
2019-03-03T15:20:09.613Z,20.23
2019-03-03T15:22:42.105Z,21.08
2019-03-03T15:25:14.831Z,21.17
2019-03-03T15:27:47.224Z,21.98
2019-03-03T15:30:25.217Z,22.94
2019-03-03T15:33:01.435Z,24.41
2019-03-03T15:35:33.255Z,25.09
2019-03-03T15:38:06.665Z,25.59
2019-03-03T15:40:39.802Z,25.91
2019-03-03T15:43:12.240Z,26.72
2019-03-03T15:45:46.685Z,27.29
2019-03-03T15:48:24.347Z,27.11
2019-03-03T15:50:59.841Z,26.07
2019-03-03T15:53:32.309Z,26.00
2019-03-03T15:56:04.586Z,26.72
2019-03-03T15:58:38.076Z,28.99
2019-03-03T16:01:17.292Z,28.74
2019-03-03T16:03:50.675Z,28.86
2019-03-03T16:06:23.546Z,29.27
2019-03-03T16:08:56.927Z,30.32
2019-03-03T16:11:35.019Z,30.26
2019-03-03T16:14:08.447Z,31.25
2019-03-03T16:16:42.140Z,31.51
2019-03-03T16:19:15.624Z,32.10
2019-03-03T16:21:49.118Z,32.72
2019-03-03T16:24:27.521Z,34.77
2019-03-03T16:27:01.317Z,37.42
2019-03-03T16:29:34.458Z,37.67
2019-03-03T16:32:07.784Z,37.81
2019-03-03T16:34:41.289Z,37.27
2019-03-03T16:37:14.954Z,39.97
2019-03-03T16:39:48.801Z,40.41
2019-03-03T16:42:22.793Z,38.16
2019-03-03T16:44:56.462Z,37.82
2019-03-03T16:47:29.372Z,38.04
2019-03-03T16:50:04.496Z,38.41
2019-03-03T16:52:38.181Z,40.29
2019-03-03T16:55:13.186Z,39.86
2019-03-03T16:57:46.820Z,40.02
2019-03-03T17:00:22.287Z,40.30
2019-03-03T17:02:55.814Z,41.44
2019-03-03T17:05:29.434Z,41.94
2019-03-03T17:08:04.483Z,42.75
2019-03-03T17:10:38.086Z,42.92
2019-03-03T17:13:11.593Z,43.19
2019-03-03T17:15:44.988Z,42.43
2019-03-03T17:18:18.454Z,43.53
2019-03-03T17:20:51.814Z,44.36
2019-03-03T17:23:25.494Z,45.70
2019-03-03T17:25:59.474Z,46.19
2019-03-03T17:28:34.890Z,46.88
2019-03-03T17:31:08.931Z,48.64
2019-03-03T17:33:42.209Z,48.57
2019-03-03T17:36:15.988Z,49.17
2019-03-03T17:38:49.473Z,49.58
2019-03-03T17:41:25.438Z,50.74
2019-03-03T17:43:59.067Z,50.48
2019-03-03T17:46:34.178Z,51.32
2019-03-03T17:49:11.582Z,51.59
2019-03-03T17:51:47.009Z,52.97
2019-03-03T17:54:21.791Z,52.49
2019-03-03T17:56:57.339Z,53.43
2019-03-03T17:59:32.651Z,53.26
2019-03-03T18:02:07.403Z,54.74
2019-03-03T18:04:41.089Z,54.50
2019-03-03T18:07:15.164Z,55.14
2019-03-03T18:09:48.854Z,55.24
2019-03-03T18:12:24.680Z,57.27
2019-03-03T18:14:58.535Z,57.24
2019-03-03T18:17:32.199Z,57.72
2019-03-03T18:20:07.359Z,58.42
2019-03-03T18:22:41.356Z,58.53
2019-03-03T18:25:16.754Z,58.70
2019-03-03T18:27:50.274Z,59.49
2019-03-03T18:30:24.639Z,60.91
2019-03-03T18:32:57.839Z,60.27
2019-03-03T18:35:31.728Z,60.37
2019-03-03T18:38:04.264Z,60.96
2019-03-03T18:40:39.229Z,61.62
2019-03-03T18:43:11.875Z,61.19
2019-03-03T18:45:47.476Z,61.29
2019-03-03T18:48:20.235Z,61.20
2019-03-03T18:50:52.959Z,61.94
2019-03-03T18:53:25.502Z,62.18
2019-03-03T18:55:58.228Z,61.41
2019-03-03T18:58:31.569Z,62.39
2019-03-03T19:01:05.848Z,63.05
2019-03-03T19:03:40.643Z,62.86
2019-03-03T19:06:13.739Z,63.01
2019-03-03T19:08:47.036Z,63.25
2019-03-03T19:11:21.041Z,63.43
2019-03-03T19:13:55.169Z,63.74
2019-03-03T19:16:28.571Z,64.32
2019-03-03T19:19:01.369Z,64.29
2019-03-03T19:21:34.004Z,65.38
2019-03-03T19:24:07.092Z,64.32
2019-03-03T19:26:40.343Z,64.92
2019-03-03T19:29:13.349Z,64.79
2019-03-03T19:31:49.229Z,66.64
2019-03-03T19:34:24.322Z,65.44
2019-03-03T19:36:57.722Z,66.08
2019-03-03T19:39:31.676Z,66.26
2019-03-03T19:42:05.087Z,66.73
2019-03-03T19:44:38.715Z,66.97
2019-03-03T19:47:13.313Z,67.35
2019-03-03T19:49:46.929Z,67.93
2019-03-03T19:52:22.361Z,68.93
2019-03-03T19:54:56.242Z,68.54
2019-03-03T19:57:30.202Z,69.31
2019-03-03T20:00:07.627Z,70.57
2019-03-03T20:02:42.062Z,72.67
2019-03-03T20:05:26.322Z,72.53
2019-03-03T20:08:03.504Z,72.50
2019-03-03T20:10:44.329Z,72.79
2019-03-03T20:13:23.819Z,73.65
2019-03-03T20:15:59.545Z,73.12
2019-03-03T20:18:34.702Z,73.24
2019-03-03T20:21:20.031Z,73.51
2019-03-03T20:23:57.456Z,74.73
2019-03-03T20:26:34.403Z,74.89
2019-03-03T20:29:08.352Z,75.60
2019-03-03T20:31:40.487Z,76.23
2019-03-03T20:34:14.428Z,76.74
2019-03-03T20:36:47.415Z,76.13
2019-03-03T20:39:22.182Z,76.08
2019-03-03T20:41:54.702Z,78.74
2019-03-03T20:44:27.328Z,76.94
2019-03-03T20:46:59.966Z,77.21
2019-03-03T20:49:33.659Z,77.59
2019-03-03T20:52:07.143Z,79.22
2019-03-03T20:54:41.334Z,79.02
2019-03-03T20:57:13.872Z,79.64
2019-03-03T20:59:48.359Z,79.84
2019-03-03T21:02:21.337Z,80.37
2019-03-03T21:04:53.849Z,80.16
2019-03-03T21:07:27.220Z,80.87
2019-03-03T21:09:59.924Z,80.84
2019-03-03T21:12:32.442Z,81.91
2019-03-03T21:15:06.355Z,80.57
2019-03-03T21:17:39.741Z,80.63
2019-03-03T21:20:14.562Z,79.99
2019-03-03T21:22:47.755Z,80.28
2019-03-03T21:25:20.643Z,79.25
2019-03-03T21:27:52.968Z,79.10
2019-03-03T21:30:26.051Z,78.65
2019-03-03T21:32:59.615Z,80.44
2019-03-03T21:35:31.789Z,78.65
2019-03-03T21:38:04.519Z,78.96
2019-03-03T21:40:37.331Z,79.16
2019-03-03T21:43:09.519Z,80.57
2019-03-03T21:45:41.775Z,80.46
2019-03-03T21:48:15.413Z,81.56
2019-03-03T21:50:47.939Z,82.21
2019-03-03T21:53:21.024Z,82.42
2019-03-03T21:55:53.078Z,81.56
2019-03-03T21:58:25.242Z,81.48
2019-03-03T22:00:57.628Z,82.23
2019-03-03T22:03:29.737Z,83.82
2019-03-03T22:06:02.079Z,83.78
2019-03-03T22:08:34.204Z,84.97
2019-03-03T22:11:06.956Z,85.31
2019-03-03T22:13:38.671Z,85.86
2019-03-03T22:16:10.744Z,86.60
2019-03-03T22:18:44.051Z,87.29
2019-03-03T22:21:15.958Z,85.71
2019-03-03T22:23:48.210Z,86.62
2019-03-03T22:26:21.043Z,86.80
2019-03-03T22:28:52.760Z,86.40
2019-03-03T22:31:24.545Z,86.01
2019-03-03T22:33:57.163Z,91.24
2019-03-03T22:36:29.176Z,92.23
2019-03-03T22:39:01.349Z,91.04
2019-03-03T22:41:33.345Z,90.58
2019-03-03T22:44:05.115Z,88.66
2019-03-03T22:46:37.501Z,88.23
2019-03-03T22:49:09.202Z,89.00
2019-03-03T22:51:41.103Z,91.31
2019-03-03T22:54:12.755Z,91.62
2019-03-03T22:56:44.477Z,89.31
2019-03-03T22:59:16.217Z,88.79
2019-03-03T23:01:48.934Z,89.04
2019-03-03T23:04:48.647Z,90.03
2019-03-03T23:07:54.574Z,91.29
2019-03-03T23:10:58.591Z,92.28
2019-03-03T23:14:05.815Z,94.32
2019-03-03T23:17:13.587Z,93.88
2019-03-03T23:20:05.819Z,89.94
2019-03-03T23:23:36.860Z,89.78
2019-03-03T23:26:16.294Z,90.37
2019-03-03T23:28:42.364Z,91.23
2019-03-03T23:31:14.378Z,92.26
2019-03-03T23:33:46.155Z,94.24
2019-03-03T23:36:18.109Z,95.02
2019-03-03T23:38:49.772Z,95.65
2019-03-03T23:41:21.497Z,96.85
2019-03-03T23:43:53.318Z,97.63
2019-03-03T23:46:26.910Z,96.80
2019-03-03T23:48:58.532Z,97.03
2019-03-03T23:51:30.162Z,98.93
2019-03-03T23:54:02.888Z,100.00
2019-03-03T23:56:34.674Z,100.00
2019-03-03T23:59:06.556Z,100.00
